sensor_id;sensor_type;location;lat;lon;timestamp;temperature;humidity
12815;DHT22;6472;52.328;13.070;2023-09-08T00:00:14;14.60;99.90
12815;DHT22;6472;52.328;13.070;2023-09-08T00:02:42;14.70;99.90
12815;DHT22;6472;52.328;13.070;2023-09-08T00:05:10;14.70;99.90
12815;DHT22;6472;52.328;13.070;2023-09-08T00:07:38;14.80;99.90
12815;DHT22;6472;52.328;13.070;2023-09-08T00:10:07;14.70;99.90
12815;DHT22;6472;52.328;13.070;2023-09-08T00:12:36;14.70;99.90
12815;DHT22;6472;52.328;13.070;2023-09-08T00:15:06;14.80;99.90
12815;DHT22;6472;52.328;13.070;2023-09-08T00:17:34;14.80;99.90
12815;DHT22;6472;52.328;13.070;2023-09-08T00:20:05;14.80;99.90
12815;DHT22;6472;52.328;13.070;2023-09-08T00:22:35;14.80;99.90
12815;DHT22;6472;52.328;13.070;2023-09-08T00:25:04;14.80;99.90
12815;DHT22;6472;52.328;13.070;2023-09-08T00:27:32;14.80;99.90
12815;DHT22;6472;52.328;13.070;2023-09-08T00:30:02;14.80;99.90
12815;DHT22;6472;52.328;13.070;2023-09-08T00:32:30;14.70;99.90
12815;DHT22;6472;52.328;13.070;2023-09-08T00:34:58;14.70;99.90
12815;DHT22;6472;52.328;13.070;2023-09-08T00:37:26;14.50;99.90
12815;DHT22;6472;52.328;13.070;2023-09-08T00:39:54;14.50;99.90
12815;DHT22;6472;52.328;13.070;2023-09-08T00:42:22;14.40;99.90
12815;DHT22;6472;52.328;13.070;2023-09-08T00:44:51;14.30;99.90
12815;DHT22;6472;52.328;13.070;2023-09-08T00:47:20;14.20;99.90
12815;DHT22;6472;52.328;13.070;2023-09-08T00:49:48;14.20;99.90
12815;DHT22;6472;52.328;13.070;2023-09-08T00:52:18;14.10;99.90
12815;DHT22;6472;52.328;13.070;2023-09-08T00:54:46;14.10;99.90
12815;DHT22;6472;52.328;13.070;2023-09-08T00:57:14;14.00;99.90
12815;DHT22;6472;52.328;13.070;2023-09-08T00:59:43;13.90;99.90
12815;DHT22;6472;52.328;13.070;2023-09-08T01:02:12;13.90;99.90
12815;DHT22;6472;52.328;13.070;2023-09-08T01:04:41;13.80;99.90
12815;DHT22;6472;52.328;13.070;2023-09-08T01:07:10;13.70;99.90
12815;DHT22;6472;52.328;13.070;2023-09-08T01:09:38;13.70;99.90
12815;DHT22;6472;52.328;13.070;2023-09-08T01:12:08;13.60;99.90
12815;DHT22;6472;52.328;13.070;2023-09-08T01:14:36;13.60;99.90
12815;DHT22;6472;52.328;13.070;2023-09-08T01:17:04;13.60;99.90
12815;DHT22;6472;52.328;13.070;2023-09-08T01:19:32;13.60;99.90
12815;DHT22;6472;52.328;13.070;2023-09-08T01:25:03;13.50;99.90
12815;DHT22;6472;52.328;13.070;2023-09-08T01:27:33;13.50;99.90
12815;DHT22;6472;52.328;13.070;2023-09-08T01:30:03;13.50;99.90
12815;DHT22;6472;52.328;13.070;2023-09-08T01:32:32;13.40;99.90
12815;DHT22;6472;52.328;13.070;2023-09-08T01:35:01;13.40;99.90
12815;DHT22;6472;52.328;13.070;2023-09-08T01:37:29;13.50;99.90
12815;DHT22;6472;52.328;13.070;2023-09-08T01:39:57;13.30;99.90
12815;DHT22;6472;52.328;13.070;2023-09-08T01:42:26;13.30;99.90
12815;DHT22;6472;52.328;13.070;2023-09-08T01:44:54;13.20;99.90
12815;DHT22;6472;52.328;13.070;2023-09-08T01:47:22;13.20;99.90
12815;DHT22;6472;52.328;13.070;2023-09-08T01:49:49;13.10;99.90
12815;DHT22;6472;52.328;13.070;2023-09-08T01:52:17;13.10;99.90
12815;DHT22;6472;52.328;13.070;2023-09-08T01:54:45;13.10;99.90
12815;DHT22;6472;52.328;13.070;2023-09-08T01:57:13;13.00;99.90
12815;DHT22;6472;52.328;13.070;2023-09-08T01:59:42;13.00;99.90
12815;DHT22;6472;52.328;13.070;2023-09-08T02:02:11;12.90;99.90
12815;DHT22;6472;52.328;13.070;2023-09-08T02:04:39;12.80;99.90
12815;DHT22;6472;52.328;13.070;2023-09-08T02:07:08;12.90;99.90
12815;DHT22;6472;52.328;13.070;2023-09-08T02:09:37;12.90;99.90
12815;DHT22;6472;52.328;13.070;2023-09-08T02:12:06;12.80;99.90
12815;DHT22;6472;52.328;13.070;2023-09-08T02:14:34;12.80;99.90
12815;DHT22;6472;52.328;13.070;2023-09-08T02:17:03;12.80;99.90
12815;DHT22;6472;52.328;13.070;2023-09-08T02:19:33;12.70;99.90
12815;DHT22;6472;52.328;13.070;2023-09-08T02:22:00;12.70;99.90
12815;DHT22;6472;52.328;13.070;2023-09-08T02:24:28;12.70;99.90
12815;DHT22;6472;52.328;13.070;2023-09-08T02:26:57;12.70;99.90
12815;DHT22;6472;52.328;13.070;2023-09-08T02:29:24;12.60;99.90
12815;DHT22;6472;52.328;13.070;2023-09-08T02:31:52;12.60;99.90
12815;DHT22;6472;52.328;13.070;2023-09-08T02:34:22;12.70;99.90
12815;DHT22;6472;52.328;13.070;2023-09-08T02:36:50;12.60;99.90
12815;DHT22;6472;52.328;13.070;2023-09-08T02:39:18;12.50;99.90
12815;DHT22;6472;52.328;13.070;2023-09-08T02:41:46;12.50;99.90
12815;DHT22;6472;52.328;13.070;2023-09-08T02:44:14;12.40;99.90
12815;DHT22;6472;52.328;13.070;2023-09-08T02:46:42;12.50;99.90
12815;DHT22;6472;52.328;13.070;2023-09-08T02:49:10;12.50;99.90
12815;DHT22;6472;52.328;13.070;2023-09-08T02:51:40;12.40;99.90
12815;DHT22;6472;52.328;13.070;2023-09-08T02:54:08;12.40;99.90
12815;DHT22;6472;52.328;13.070;2023-09-08T02:56:36;12.40;99.90
12815;DHT22;6472;52.328;13.070;2023-09-08T02:59:04;12.40;99.90
12815;DHT22;6472;52.328;13.070;2023-09-08T03:01:32;12.30;99.90
12815;DHT22;6472;52.328;13.070;2023-09-08T03:04:01;12.30;99.90
12815;DHT22;6472;52.328;13.070;2023-09-08T03:06:29;12.30;99.90
12815;DHT22;6472;52.328;13.070;2023-09-08T03:08:59;12.30;99.90
12815;DHT22;6472;52.328;13.070;2023-09-08T03:11:27;12.30;99.90
12815;DHT22;6472;52.328;13.070;2023-09-08T03:13:56;12.30;99.90
12815;DHT22;6472;52.328;13.070;2023-09-08T03:16:24;12.20;99.90
12815;DHT22;6472;52.328;13.070;2023-09-08T03:18:52;12.20;99.90
12815;DHT22;6472;52.328;13.070;2023-09-08T03:21:20;12.20;99.90
12815;DHT22;6472;52.328;13.070;2023-09-08T03:23:48;12.20;99.90
12815;DHT22;6472;52.328;13.070;2023-09-08T03:26:17;12.20;99.90
12815;DHT22;6472;52.328;13.070;2023-09-08T03:28:45;12.20;99.90
12815;DHT22;6472;52.328;13.070;2023-09-08T03:31:13;12.10;99.90
12815;DHT22;6472;52.328;13.070;2023-09-08T03:33:41;12.10;99.90
12815;DHT22;6472;52.328;13.070;2023-09-08T03:36:10;12.00;99.90
12815;DHT22;6472;52.328;13.070;2023-09-08T03:38:38;12.00;99.90
12815;DHT22;6472;52.328;13.070;2023-09-08T03:41:07;12.00;99.90
12815;DHT22;6472;52.328;13.070;2023-09-08T03:43:37;12.00;99.90
12815;DHT22;6472;52.328;13.070;2023-09-08T03:46:05;11.90;99.90
12815;DHT22;6472;52.328;13.070;2023-09-08T03:48:33;11.90;99.90
12815;DHT22;6472;52.328;13.070;2023-09-08T03:51:01;11.90;99.90
12815;DHT22;6472;52.328;13.070;2023-09-08T03:53:29;11.80;99.90
12815;DHT22;6472;52.328;13.070;2023-09-08T03:55:59;11.80;99.90
12815;DHT22;6472;52.328;13.070;2023-09-08T03:58:27;11.90;99.90
12815;DHT22;6472;52.328;13.070;2023-09-08T04:00:57;11.80;99.90
12815;DHT22;6472;52.328;13.070;2023-09-08T04:03:25;11.80;99.90
12815;DHT22;6472;52.328;13.070;2023-09-08T04:05:54;11.80;99.90
12815;DHT22;6472;52.328;13.070;2023-09-08T04:08:21;11.70;99.90
12815;DHT22;6472;52.328;13.070;2023-09-08T04:10:49;11.70;99.90
12815;DHT22;6472;52.328;13.070;2023-09-08T04:13:17;11.70;99.90
12815;DHT22;6472;52.328;13.070;2023-09-08T04:15:46;11.70;99.90
12815;DHT22;6472;52.328;13.070;2023-09-08T04:18:15;11.70;99.90
12815;DHT22;6472;52.328;13.070;2023-09-08T04:20:43;11.60;99.90
12815;DHT22;6472;52.328;13.070;2023-09-08T04:23:11;11.70;99.90
12815;DHT22;6472;52.328;13.070;2023-09-08T04:25:39;11.70;99.90
12815;DHT22;6472;52.328;13.070;2023-09-08T04:28:07;11.70;99.90
12815;DHT22;6472;52.328;13.070;2023-09-08T04:30:35;11.70;99.90
12815;DHT22;6472;52.328;13.070;2023-09-08T04:33:04;11.70;99.90
12815;DHT22;6472;52.328;13.070;2023-09-08T04:35:33;11.70;99.90
12815;DHT22;6472;52.328;13.070;2023-09-08T04:38:02;11.70;99.90
12815;DHT22;6472;52.328;13.070;2023-09-08T04:40:31;11.70;99.90
12815;DHT22;6472;52.328;13.070;2023-09-08T04:42:59;11.70;99.90
12815;DHT22;6472;52.328;13.070;2023-09-08T04:45:27;11.70;99.90
12815;DHT22;6472;52.328;13.070;2023-09-08T04:47:55;11.60;99.90
12815;DHT22;6472;52.328;13.070;2023-09-08T04:50:23;11.70;99.90
12815;DHT22;6472;52.328;13.070;2023-09-08T04:52:52;11.70;99.90
12815;DHT22;6472;52.328;13.070;2023-09-08T04:55:20;11.70;99.90
12815;DHT22;6472;52.328;13.070;2023-09-08T04:57:48;11.80;99.90
12815;DHT22;6472;52.328;13.070;2023-09-08T05:00:17;11.80;99.90
12815;DHT22;6472;52.328;13.070;2023-09-08T05:02:45;11.80;99.90
12815;DHT22;6472;52.328;13.070;2023-09-08T05:05:13;11.80;99.90
12815;DHT22;6472;52.328;13.070;2023-09-08T05:07:41;11.80;99.90
12815;DHT22;6472;52.328;13.070;2023-09-08T05:10:11;11.90;99.90
12815;DHT22;6472;52.328;13.070;2023-09-08T05:12:39;11.90;99.90
12815;DHT22;6472;52.328;13.070;2023-09-08T05:15:07;12.00;99.90
12815;DHT22;6472;52.328;13.070;2023-09-08T05:17:41;12.00;99.90
12815;DHT22;6472;52.328;13.070;2023-09-08T05:20:10;12.10;99.90
12815;DHT22;6472;52.328;13.070;2023-09-08T05:22:38;12.20;99.90
12815;DHT22;6472;52.328;13.070;2023-09-08T05:25:06;12.30;99.90
12815;DHT22;6472;52.328;13.070;2023-09-08T05:27:36;12.40;99.90
12815;DHT22;6472;52.328;13.070;2023-09-08T05:30:05;12.50;99.90
12815;DHT22;6472;52.328;13.070;2023-09-08T05:32:33;12.60;99.90
12815;DHT22;6472;52.328;13.070;2023-09-08T05:35:02;13.00;99.90
12815;DHT22;6472;52.328;13.070;2023-09-08T05:37:30;13.10;99.90
12815;DHT22;6472;52.328;13.070;2023-09-08T05:39:58;13.30;99.90
12815;DHT22;6472;52.328;13.070;2023-09-08T05:42:26;13.30;99.90
12815;DHT22;6472;52.328;13.070;2023-09-08T05:44:55;13.30;99.90
12815;DHT22;6472;52.328;13.070;2023-09-08T05:47:23;13.40;99.90
12815;DHT22;6472;52.328;13.070;2023-09-08T05:49:51;13.50;99.90
12815;DHT22;6472;52.328;13.070;2023-09-08T05:52:21;13.60;99.90
12815;DHT22;6472;52.328;13.070;2023-09-08T05:54:49;13.70;99.90
12815;DHT22;6472;52.328;13.070;2023-09-08T05:57:17;13.80;99.90
12815;DHT22;6472;52.328;13.070;2023-09-08T05:59:45;13.80;99.90
12815;DHT22;6472;52.328;13.070;2023-09-08T06:02:14;13.90;99.90
12815;DHT22;6472;52.328;13.070;2023-09-08T06:04:42;14.00;99.90
12815;DHT22;6472;52.328;13.070;2023-09-08T06:07:10;14.10;99.90
12815;DHT22;6472;52.328;13.070;2023-09-08T06:09:39;14.30;99.90
12815;DHT22;6472;52.328;13.070;2023-09-08T06:12:07;14.40;99.90
12815;DHT22;6472;52.328;13.070;2023-09-08T06:14:35;14.50;99.90
12815;DHT22;6472;52.328;13.070;2023-09-08T06:17:03;14.70;99.90
12815;DHT22;6472;52.328;13.070;2023-09-08T06:19:32;14.90;99.90
12815;DHT22;6472;52.328;13.070;2023-09-08T06:22:00;15.10;99.90
12815;DHT22;6472;52.328;13.070;2023-09-08T06:24:28;15.20;99.90
12815;DHT22;6472;52.328;13.070;2023-09-08T06:26:56;15.40;99.90
12815;DHT22;6472;52.328;13.070;2023-09-08T06:29:24;15.60;99.90
12815;DHT22;6472;52.328;13.070;2023-09-08T06:31:52;15.70;99.90
12815;DHT22;6472;52.328;13.070;2023-09-08T06:34:20;16.00;99.90
12815;DHT22;6472;52.328;13.070;2023-09-08T06:36:51;16.20;99.90
12815;DHT22;6472;52.328;13.070;2023-09-08T06:39:21;16.30;99.90
12815;DHT22;6472;52.328;13.070;2023-09-08T06:41:49;16.50;99.90
12815;DHT22;6472;52.328;13.070;2023-09-08T06:44:19;16.70;99.90
12815;DHT22;6472;52.328;13.070;2023-09-08T06:46:47;16.80;99.90
12815;DHT22;6472;52.328;13.070;2023-09-08T06:49:15;17.00;99.90
12815;DHT22;6472;52.328;13.070;2023-09-08T06:51:43;17.20;99.90
12815;DHT22;6472;52.328;13.070;2023-09-08T06:54:12;17.40;99.90
12815;DHT22;6472;52.328;13.070;2023-09-08T06:56:40;17.60;99.90
12815;DHT22;6472;52.328;13.070;2023-09-08T06:59:08;17.70;99.90
12815;DHT22;6472;52.328;13.070;2023-09-08T07:01:36;17.80;99.90
12815;DHT22;6472;52.328;13.070;2023-09-08T07:04:05;18.00;99.90
12815;DHT22;6472;52.328;13.070;2023-09-08T07:06:33;18.10;99.90
12815;DHT22;6472;52.328;13.070;2023-09-08T07:09:02;18.30;99.90
12815;DHT22;6472;52.328;13.070;2023-09-08T07:11:31;18.50;99.90
12815;DHT22;6472;52.328;13.070;2023-09-08T07:13:59;18.70;99.90
12815;DHT22;6472;52.328;13.070;2023-09-08T07:16:27;18.80;99.90
12815;DHT22;6472;52.328;13.070;2023-09-08T07:18:56;18.90;99.90
12815;DHT22;6472;52.328;13.070;2023-09-08T07:21:24;19.10;99.90
12815;DHT22;6472;52.328;13.070;2023-09-08T07:23:52;19.20;99.90
12815;DHT22;6472;52.328;13.070;2023-09-08T07:26:20;19.50;99.90
12815;DHT22;6472;52.328;13.070;2023-09-08T07:28:50;19.70;99.90
12815;DHT22;6472;52.328;13.070;2023-09-08T07:31:18;19.90;99.90
12815;DHT22;6472;52.328;13.070;2023-09-08T07:33:46;20.10;99.90
12815;DHT22;6472;52.328;13.070;2023-09-08T07:36:14;20.20;99.90
12815;DHT22;6472;52.328;13.070;2023-09-08T07:38:42;20.40;99.90
12815;DHT22;6472;52.328;13.070;2023-09-08T07:41:10;20.70;99.90
12815;DHT22;6472;52.328;13.070;2023-09-08T07:43:39;20.80;99.90
12815;DHT22;6472;52.328;13.070;2023-09-08T07:46:09;20.90;99.90
12815;DHT22;6472;52.328;13.070;2023-09-08T07:48:37;21.20;99.90
12815;DHT22;6472;52.328;13.070;2023-09-08T07:51:06;21.50;99.90
12815;DHT22;6472;52.328;13.070;2023-09-08T07:53:34;21.60;99.90
12815;DHT22;6472;52.328;13.070;2023-09-08T07:56:02;21.90;99.90
12815;DHT22;6472;52.328;13.070;2023-09-08T07:58:31;22.20;99.90
12815;DHT22;6472;52.328;13.070;2023-09-08T08:01:00;22.40;99.90
12815;DHT22;6472;52.328;13.070;2023-09-08T08:03:29;22.50;99.90
12815;DHT22;6472;52.328;13.070;2023-09-08T08:05:58;22.60;99.90
12815;DHT22;6472;52.328;13.070;2023-09-08T08:08:26;22.80;99.90
12815;DHT22;6472;52.328;13.070;2023-09-08T08:10:54;23.00;99.90
12815;DHT22;6472;52.328;13.070;2023-09-08T08:13:22;23.20;99.90
12815;DHT22;6472;52.328;13.070;2023-09-08T08:15:50;23.40;99.90
12815;DHT22;6472;52.328;13.070;2023-09-08T08:18:18;23.50;99.90
12815;DHT22;6472;52.328;13.070;2023-09-08T08:20:48;23.60;99.90
12815;DHT22;6472;52.328;13.070;2023-09-08T08:23:16;23.90;99.90
12815;DHT22;6472;52.328;13.070;2023-09-08T08:25:44;23.90;99.90
12815;DHT22;6472;52.328;13.070;2023-09-08T08:28:12;24.10;99.90
12815;DHT22;6472;52.328;13.070;2023-09-08T08:30:40;24.10;99.90
12815;DHT22;6472;52.328;13.070;2023-09-08T08:33:08;24.10;99.90
12815;DHT22;6472;52.328;13.070;2023-09-08T08:35:37;24.40;99.90
12815;DHT22;6472;52.328;13.070;2023-09-08T08:38:07;24.50;99.90
12815;DHT22;6472;52.328;13.070;2023-09-08T08:40:38;24.70;99.90
12815;DHT22;6472;52.328;13.070;2023-09-08T08:43:07;24.80;99.90
12815;DHT22;6472;52.328;13.070;2023-09-08T08:45:37;25.00;99.90
12815;DHT22;6472;52.328;13.070;2023-09-08T08:48:06;24.90;99.90
12815;DHT22;6472;52.328;13.070;2023-09-08T08:50:36;24.90;99.90
12815;DHT22;6472;52.328;13.070;2023-09-08T08:53:06;25.20;99.90
12815;DHT22;6472;52.328;13.070;2023-09-08T08:55:36;25.40;99.90
12815;DHT22;6472;52.328;13.070;2023-09-08T08:58:04;25.50;99.90
12815;DHT22;6472;52.328;13.070;2023-09-08T09:00:34;25.60;99.90
12815;DHT22;6472;52.328;13.070;2023-09-08T09:03:05;25.70;99.90
12815;DHT22;6472;52.328;13.070;2023-09-08T09:05:41;25.90;99.90
12815;DHT22;6472;52.328;13.070;2023-09-08T09:08:16;26.10;99.90
12815;DHT22;6472;52.328;13.070;2023-09-08T09:10:45;26.20;99.90
12815;DHT22;6472;52.328;13.070;2023-09-08T09:13:13;26.40;99.90
12815;DHT22;6472;52.328;13.070;2023-09-08T09:15:43;26.40;99.90
12815;DHT22;6472;52.328;13.070;2023-09-08T09:18:12;26.60;99.90
12815;DHT22;6472;52.328;13.070;2023-09-08T09:20:41;26.40;99.90
12815;DHT22;6472;52.328;13.070;2023-09-08T09:23:28;26.40;99.90
12815;DHT22;6472;52.328;13.070;2023-09-08T09:25:57;26.60;99.90
12815;DHT22;6472;52.328;13.070;2023-09-08T09:28:28;26.60;98.10
12815;DHT22;6472;52.328;13.070;2023-09-08T09:30:57;26.70;98.00
12815;DHT22;6472;52.328;13.070;2023-09-08T09:33:28;26.80;95.90
12815;DHT22;6472;52.328;13.070;2023-09-08T09:35:56;26.70;97.20
12815;DHT22;6472;52.328;13.070;2023-09-08T09:38:28;26.70;94.80
12815;DHT22;6472;52.328;13.070;2023-09-08T09:40:56;26.60;95.40
12815;DHT22;6472;52.328;13.070;2023-09-08T09:43:27;26.60;96.20
12815;DHT22;6472;52.328;13.070;2023-09-08T09:45:56;26.60;95.50
12815;DHT22;6472;52.328;13.070;2023-09-08T09:48:24;26.50;96.70
12815;DHT22;6472;52.328;13.070;2023-09-08T09:50:52;26.50;95.10
12815;DHT22;6472;52.328;13.070;2023-09-08T09:53:20;26.50;95.40
12815;DHT22;6472;52.328;13.070;2023-09-08T09:55:50;26.60;95.60
12815;DHT22;6472;52.328;13.070;2023-09-08T09:58:19;26.50;96.90
12815;DHT22;6472;52.328;13.070;2023-09-08T10:00:50;26.60;95.70
12815;DHT22;6472;52.328;13.070;2023-09-08T10:03:19;26.50;96.00
12815;DHT22;6472;52.328;13.070;2023-09-08T10:05:47;26.30;97.50
12815;DHT22;6472;52.328;13.070;2023-09-08T10:08:16;26.20;98.40
12815;DHT22;6472;52.328;13.070;2023-09-08T10:10:45;26.30;97.70
12815;DHT22;6472;52.328;13.070;2023-09-08T10:13:22;26.30;95.90
12815;DHT22;6472;52.328;13.070;2023-09-08T10:15:52;26.30;95.90
12815;DHT22;6472;52.328;13.070;2023-09-08T10:18:20;26.40;94.50
12815;DHT22;6472;52.328;13.070;2023-09-08T10:20:51;26.50;94.50
12815;DHT22;6472;52.328;13.070;2023-09-08T10:23:23;26.50;95.80
12815;DHT22;6472;52.328;13.070;2023-09-08T10:25:56;26.60;94.40
12815;DHT22;6472;52.328;13.070;2023-09-08T10:28:29;26.60;95.10
12815;DHT22;6472;52.328;13.070;2023-09-08T10:30:58;26.70;93.80
12815;DHT22;6472;52.328;13.070;2023-09-08T10:33:26;26.70;90.80
12815;DHT22;6472;52.328;13.070;2023-09-08T10:35:55;26.60;92.20
12815;DHT22;6472;52.328;13.070;2023-09-08T10:38:26;26.60;93.50
12815;DHT22;6472;52.328;13.070;2023-09-08T10:41:26;26.50;93.70
12815;DHT22;6472;52.328;13.070;2023-09-08T10:44:02;26.60;93.10
12815;DHT22;6472;52.328;13.070;2023-09-08T10:46:32;26.70;92.00
12815;DHT22;6472;52.328;13.070;2023-09-08T10:49:03;26.90;90.80
12815;DHT22;6472;52.328;13.070;2023-09-08T10:52:03;26.90;90.50
12815;DHT22;6472;52.328;13.070;2023-09-08T10:55:03;26.70;90.30
12815;DHT22;6472;52.328;13.070;2023-09-08T10:57:33;26.70;90.40
12815;DHT22;6472;52.328;13.070;2023-09-08T11:00:04;26.70;90.50
12815;DHT22;6472;52.328;13.070;2023-09-08T11:02:40;26.70;91.60
12815;DHT22;6472;52.328;13.070;2023-09-08T11:05:10;26.70;89.40
12815;DHT22;6472;52.328;13.070;2023-09-08T11:07:41;26.70;90.40
12815;DHT22;6472;52.328;13.070;2023-09-08T11:10:11;26.60;88.60
12815;DHT22;6472;52.328;13.070;2023-09-08T11:12:40;26.70;87.80
12815;DHT22;6472;52.328;13.070;2023-09-08T11:15:12;26.80;87.90
12815;DHT22;6472;52.328;13.070;2023-09-08T11:18:06;26.70;89.40
12815;DHT22;6472;52.328;13.070;2023-09-08T11:20:35;26.60;90.40
12815;DHT22;6472;52.328;13.070;2023-09-08T11:23:03;26.60;85.30
12815;DHT22;6472;52.328;13.070;2023-09-08T11:25:33;26.70;86.10
12815;DHT22;6472;52.328;13.070;2023-09-08T11:28:02;26.70;87.30
12815;DHT22;6472;52.328;13.070;2023-09-08T11:30:31;26.70;85.10
12815;DHT22;6472;52.328;13.070;2023-09-08T11:33:00;26.70;83.20
12815;DHT22;6472;52.328;13.070;2023-09-08T11:35:28;26.70;83.40
12815;DHT22;6472;52.328;13.070;2023-09-08T11:38:00;26.60;84.00
12815;DHT22;6472;52.328;13.070;2023-09-08T11:40:31;26.70;83.70
12815;DHT22;6472;52.328;13.070;2023-09-08T11:43:01;26.80;83.10
12815;DHT22;6472;52.328;13.070;2023-09-08T11:45:34;26.90;82.70
12815;DHT22;6472;52.328;13.070;2023-09-08T11:48:03;26.90;79.80
12815;DHT22;6472;52.328;13.070;2023-09-08T11:50:32;26.90;81.30
12815;DHT22;6472;52.328;13.070;2023-09-08T11:53:00;26.90;82.60
12815;DHT22;6472;52.328;13.070;2023-09-08T11:55:29;26.80;81.00
12815;DHT22;6472;52.328;13.070;2023-09-08T11:57:57;26.80;81.40
12815;DHT22;6472;52.328;13.070;2023-09-08T12:00:28;27.00;82.80
12815;DHT22;6472;52.328;13.070;2023-09-08T12:03:09;27.10;80.60
12815;DHT22;6472;52.328;13.070;2023-09-08T12:05:37;27.20;77.30
12815;DHT22;6472;52.328;13.070;2023-09-08T12:08:06;27.30;78.80
12815;DHT22;6472;52.328;13.070;2023-09-08T12:10:41;27.40;81.70
12815;DHT22;6472;52.328;13.070;2023-09-08T12:13:09;27.40;81.50
12815;DHT22;6472;52.328;13.070;2023-09-08T12:15:41;27.40;81.20
12815;DHT22;6472;52.328;13.070;2023-09-08T12:18:13;27.40;81.40
12815;DHT22;6472;52.328;13.070;2023-09-08T12:20:43;27.40;80.80
12815;DHT22;6472;52.328;13.070;2023-09-08T12:23:19;27.50;80.90
12815;DHT22;6472;52.328;13.070;2023-09-08T12:25:47;27.50;81.00
12815;DHT22;6472;52.328;13.070;2023-09-08T12:28:17;27.60;81.50
12815;DHT22;6472;52.328;13.070;2023-09-08T12:30:46;27.70;79.80
12815;DHT22;6472;52.328;13.070;2023-09-08T12:33:15;27.90;79.10
12815;DHT22;6472;52.328;13.070;2023-09-08T12:35:47;27.90;80.10
12815;DHT22;6472;52.328;13.070;2023-09-08T12:38:18;27.90;73.30
12815;DHT22;6472;52.328;13.070;2023-09-08T12:40:46;28.00;77.10
12815;DHT22;6472;52.328;13.070;2023-09-08T12:43:14;28.00;76.60
12815;DHT22;6472;52.328;13.070;2023-09-08T12:45:53;28.10;73.60
12815;DHT22;6472;52.328;13.070;2023-09-08T12:48:23;28.10;72.50
12815;DHT22;6472;52.328;13.070;2023-09-08T12:50:52;28.10;73.40
12815;DHT22;6472;52.328;13.070;2023-09-08T12:53:20;28.20;72.10
12815;DHT22;6472;52.328;13.070;2023-09-08T12:55:50;28.10;73.00
12815;DHT22;6472;52.328;13.070;2023-09-08T12:58:18;28.00;73.30
12815;DHT22;6472;52.328;13.070;2023-09-08T13:00:46;28.10;70.50
12815;DHT22;6472;52.328;13.070;2023-09-08T13:03:14;28.20;69.80
12815;DHT22;6472;52.328;13.070;2023-09-08T13:05:43;28.30;69.80
12815;DHT22;6472;52.328;13.070;2023-09-08T13:08:12;28.40;68.80
12815;DHT22;6472;52.328;13.070;2023-09-08T13:10:42;28.40;67.80
12815;DHT22;6472;52.328;13.070;2023-09-08T13:13:10;28.30;68.80
12815;DHT22;6472;52.328;13.070;2023-09-08T13:15:38;28.30;67.60
12815;DHT22;6472;52.328;13.070;2023-09-08T13:18:06;28.40;70.20
12815;DHT22;6472;52.328;13.070;2023-09-08T13:20:34;28.50;65.90
12815;DHT22;6472;52.328;13.070;2023-09-08T13:23:04;28.60;65.20
12815;DHT22;6472;52.328;13.070;2023-09-08T13:25:32;28.70;65.60
12815;DHT22;6472;52.328;13.070;2023-09-08T13:28:00;28.80;64.90
12815;DHT22;6472;52.328;13.070;2023-09-08T13:30:28;28.80;64.70
12815;DHT22;6472;52.328;13.070;2023-09-08T13:32:56;28.90;65.10
12815;DHT22;6472;52.328;13.070;2023-09-08T13:35:24;28.90;64.50
12815;DHT22;6472;52.328;13.070;2023-09-08T13:37:52;28.80;63.70
12815;DHT22;6472;52.328;13.070;2023-09-08T13:40:32;28.50;65.10
12815;DHT22;6472;52.328;13.070;2023-09-08T13:43:11;28.50;64.00
12815;DHT22;6472;52.328;13.070;2023-09-08T13:45:39;28.60;64.60
12815;DHT22;6472;52.328;13.070;2023-09-08T13:48:09;28.70;63.50
12815;DHT22;6472;52.328;13.070;2023-09-08T13:50:38;28.70;63.50
12815;DHT22;6472;52.328;13.070;2023-09-08T13:53:10;28.70;62.70
12815;DHT22;6472;52.328;13.070;2023-09-08T13:55:42;28.60;64.00
12815;DHT22;6472;52.328;13.070;2023-09-08T13:58:11;28.50;65.00
12815;DHT22;6472;52.328;13.070;2023-09-08T14:00:40;28.50;64.30
12815;DHT22;6472;52.328;13.070;2023-09-08T14:03:11;28.50;64.00
12815;DHT22;6472;52.328;13.070;2023-09-08T14:05:43;28.50;64.20
12815;DHT22;6472;52.328;13.070;2023-09-08T14:08:18;28.50;63.30
12815;DHT22;6472;52.328;13.070;2023-09-08T14:10:56;28.50;63.20
12815;DHT22;6472;52.328;13.070;2023-09-08T14:13:28;28.50;63.80
12815;DHT22;6472;52.328;13.070;2023-09-08T14:15:56;28.40;64.80
12815;DHT22;6472;52.328;13.070;2023-09-08T14:18:28;28.40;64.70
12815;DHT22;6472;52.328;13.070;2023-09-08T14:20:56;28.40;63.50
12815;DHT22;6472;52.328;13.070;2023-09-08T14:23:24;28.40;62.60
12815;DHT22;6472;52.328;13.070;2023-09-08T14:25:52;28.30;63.50
12815;DHT22;6472;52.328;13.070;2023-09-08T14:28:22;28.30;64.90
12815;DHT22;6472;52.328;13.070;2023-09-08T14:30:50;28.40;63.60
12815;DHT22;6472;52.328;13.070;2023-09-08T14:33:18;28.30;65.60
12815;DHT22;6472;52.328;13.070;2023-09-08T14:35:46;28.30;65.40
12815;DHT22;6472;52.328;13.070;2023-09-08T14:38:18;28.30;64.70
12815;DHT22;6472;52.328;13.070;2023-09-08T14:40:54;28.30;64.40
12815;DHT22;6472;52.328;13.070;2023-09-08T14:43:24;28.30;64.00
12815;DHT22;6472;52.328;13.070;2023-09-08T14:45:52;28.30;64.60
12815;DHT22;6472;52.328;13.070;2023-09-08T14:48:21;28.30;62.60
12815;DHT22;6472;52.328;13.070;2023-09-08T14:50:49;28.40;62.10
12815;DHT22;6472;52.328;13.070;2023-09-08T14:53:17;28.40;63.60
12815;DHT22;6472;52.328;13.070;2023-09-08T14:55:46;28.40;61.70
12815;DHT22;6472;52.328;13.070;2023-09-08T14:58:15;28.40;62.40
12815;DHT22;6472;52.328;13.070;2023-09-08T15:00:45;28.40;62.50
12815;DHT22;6472;52.328;13.070;2023-09-08T15:03:14;28.40;62.70
12815;DHT22;6472;52.328;13.070;2023-09-08T15:05:42;28.40;61.90
12815;DHT22;6472;52.328;13.070;2023-09-08T15:08:10;28.30;64.10
12815;DHT22;6472;52.328;13.070;2023-09-08T15:10:39;28.30;62.30
12815;DHT22;6472;52.328;13.070;2023-09-08T15:13:07;28.20;62.90
12815;DHT22;6472;52.328;13.070;2023-09-08T15:15:35;28.10;63.40
12815;DHT22;6472;52.328;13.070;2023-09-08T15:18:05;28.10;64.00
12815;DHT22;6472;52.328;13.070;2023-09-08T15:20:33;28.10;62.50
12815;DHT22;6472;52.328;13.070;2023-09-08T15:23:01;28.10;61.90
12815;DHT22;6472;52.328;13.070;2023-09-08T15:25:33;28.20;62.60
12815;DHT22;6472;52.328;13.070;2023-09-08T15:28:01;28.20;61.50
12815;DHT22;6472;52.328;13.070;2023-09-08T15:30:29;28.10;63.90
12815;DHT22;6472;52.328;13.070;2023-09-08T15:33:02;28.10;62.10
12815;DHT22;6472;52.328;13.070;2023-09-08T15:35:32;27.90;63.90
12815;DHT22;6472;52.328;13.070;2023-09-08T15:38:00;27.90;65.40
12815;DHT22;6472;52.328;13.070;2023-09-08T15:40:28;27.80;65.10
12815;DHT22;6472;52.328;13.070;2023-09-08T15:42:56;27.90;63.50
12815;DHT22;6472;52.328;13.070;2023-09-08T15:45:25;27.90;64.90